Time;durP1;ratioP1;P1;durP2;ratioP2;P2;SDS_P1;SDS_P2;PMS_P1;PMS_P2;Temp;Humidity;BMP_temperature;BMP_pressure;BME280_temperature;BME280_humidity;BME280_pressure;Samples;Min_cycle;Max_cycle;Signal;HPM_P1;HPM_P2
2022/01/30 00:01:13;;;;;;;26.38;3.42;;;6.90;99.90;;;;;;5000237;28;20108;-62
2022/01/30 00:03:39;;;;;;;28.90;3.53;;;6.90;99.90;;;;;;4998515;28;20034;-62
2022/01/30 00:06:04;;;;;;;22.48;4.57;;;6.90;99.90;;;;;;5001249;28;20038;-64
2022/01/30 00:08:30;;;;;;;25.58;4.63;;;6.90;99.90;;;;;;4998555;28;20152;-62
2022/01/30 00:11:02;;;;;;;21.35;3.13;;;6.80;99.90;;;;;;4983245;28;20478;-62
2022/01/30 00:13:28;;;;;;;30.60;5.68;;;6.80;99.90;;;;;;4980741;28;20081;-62
2022/01/30 00:15:55;;;;;;;17.67;2.40;;;6.80;99.90;;;;;;5000375;28;20104;-63
2022/01/30 00:23:54;;;;;;;22.38;3.03;;;6.70;99.90;;;;;;4957937;28;20133;-61
2022/01/30 00:26:20;;;;;;;21.27;2.53;;;6.70;99.90;;;;;;5001626;28;20121;-64
2022/01/30 00:28:46;;;;;;;17.13;3.42;;;6.70;99.90;;;;;;4999357;28;20030;-62
2022/01/30 00:31:19;;;;;;;24.05;4.32;;;6.80;99.90;;;;;;4995775;28;20116;-62
2022/01/30 00:33:45;;;;;;;10.93;2.42;;;6.90;99.90;;;;;;4999445;28;20038;-62
2022/01/30 00:36:10;;;;;;;20.92;3.42;;;6.80;99.90;;;;;;5000009;28;20394;-61
2022/01/30 00:38:36;;;;;;;22.90;3.55;;;6.80;99.90;;;;;;4980622;28;20038;-63
2022/01/30 00:41:01;;;;;;;22.15;3.55;;;6.80;99.90;;;;;;5001330;28;20556;-62
2022/01/30 00:43:27;;;;;;;24.52;3.55;;;6.80;99.90;;;;;;4999414;28;20445;-62
2022/01/30 00:45:53;;;;;;;25.58;2.85;;;6.80;99.90;;;;;;5000401;28;20212;-62
2022/01/30 00:48:18;;;;;;;27.60;4.25;;;6.80;99.90;;;;;;4998916;28;20803;-62
2022/01/30 00:50:45;;;;;;;25.58;3.15;;;6.80;99.90;;;;;;4999272;28;20125;-62
2022/01/30 00:53:11;;;;;;;21.88;2.83;;;6.80;99.90;;;;;;4999834;28;20029;-62
2022/01/30 00:55:36;;;;;;;19.73;3.00;;;6.80;99.90;;;;;;4998222;28;20168;-62
2022/01/30 00:58:02;;;;;;;26.70;3.95;;;6.80;99.90;;;;;;4983612;28;20038;-63
2022/01/30 01:00:29;;;;;;;27.60;2.70;;;6.80;99.90;;;;;;4997206;28;20043;-63
2022/01/30 01:02:55;;;;;;;18.67;2.75;;;6.70;99.90;;;;;;5000799;28;20112;-62
2022/01/30 01:05:21;;;;;;;25.05;4.70;;;6.70;99.90;;;;;;4998030;28;20076;-62
2022/01/30 01:07:49;;;;;;;19.27;2.20;;;6.70;99.90;;;;;;4999873;28;20030;-62
2022/01/30 01:23:39;;;;;;;45.50;5.03;;;6.50;99.90;;;;;;5021110;28;20048;-67
2022/01/30 01:26:04;;;;;;;25.98;3.33;;;6.50;99.90;;;;;;5015744;28;20038;-68
2022/01/30 01:28:30;;;;;;;24.80;3.40;;;6.50;99.90;;;;;;5008323;28;20100;-68
2022/01/30 01:30:57;;;;;;;22.42;4.80;;;6.50;99.90;;;;;;5011126;28;20088;-67
2022/01/30 01:33:27;;;;;;;19.30;2.10;;;6.60;99.90;;;;;;5013409;28;20079;-68
2022/01/30 01:35:53;;;;;;;24.80;3.47;;;6.60;99.90;;;;;;5012824;28;20033;-68
2022/01/30 01:38:19;;;;;;;19.48;3.15;;;6.60;99.90;;;;;;5013033;28;20493;-67
2022/01/30 01:40:52;;;;;;;17.98;2.42;;;6.60;99.90;;;;;;5013263;28;20046;-67
2022/01/30 01:43:19;;;;;;;22.15;3.70;;;6.60;99.90;;;;;;5004358;28;20045;-68
2022/01/30 01:45:49;;;;;;;23.20;3.65;;;6.50;99.90;;;;;;5012272;28;20049;-68
2022/01/30 01:48:15;;;;;;;26.20;4.07;;;6.50;99.90;;;;;;5011565;28;20038;-67
2022/01/30 01:50:50;;;;;;;22.90;4.45;;;6.60;99.90;;;;;;5012172;28;20053;-67
2022/01/30 01:53:19;;;;;;;18.80;3.08;;;6.50;99.90;;;;;;5011691;28;20025;-68
2022/01/30 01:55:45;;;;;;;28.38;3.42;;;6.50;99.90;;;;;;5012484;28;20034;-68
2022/01/30 01:58:10;;;;;;;23.70;3.60;;;6.50;99.90;;;;;;5011427;28;20564;-68
2022/01/30 02:00:37;;;;;;;17.20;2.28;;;6.50;99.90;;;;;;5011436;28;20113;-68
2022/01/30 02:03:03;;;;;;;28.02;2.95;;;6.50;99.90;;;;;;5011747;28;20034;-67
2022/01/30 02:05:32;;;;;;;25.33;3.05;;;6.40;99.90;;;;;;5012694;28;20505;-68
2022/01/30 02:08:26;;;;;;;16.77;2.53;;;6.40;99.90;;;;;;5012782;28;20042;-67
2022/01/30 02:10:58;;;;;;;18.45;2.28;;;6.40;99.90;;;;;;5012427;28;20520;-68
2022/01/30 02:13:44;;;;;;;17.42;2.80;;;6.30;99.90;;;;;;5012454;28;20038;-68
2022/01/30 02:27:05;;;;;;;22.98;3.63;;;6.00;99.90;;;;;;5012852;28;20026;-65
2022/01/30 02:29:31;;;;;;;18.30;4.30;;;6.10;99.90;;;;;;5010743;28;20473;-67
2022/01/30 02:31:58;;;;;;;16.90;2.45;;;6.10;99.90;;;;;;5011447;28;20033;-67
2022/01/30 02:34:28;;;;;;;17.27;2.03;;;6.10;99.90;;;;;;5011103;28;20033;-68
2022/01/30 02:36:55;;;;;;;26.08;4.00;;;6.10;99.90;;;;;;5003947;28;20030;-67
2022/01/30 02:39:21;;;;;;;13.65;1.92;;;6.10;99.90;;;;;;5008230;28;20470;-68
2022/01/30 02:41:47;;;;;;;25.67;2.75;;;6.30;99.90;;;;;;5011777;28;20037;-68
2022/01/30 02:44:20;;;;;;;20.13;2.85;;;6.30;99.90;;;;;;5010971;28;20038;-68
2022/01/30 02:46:49;;;;;;;15.98;2.88;;;6.40;99.90;;;;;;5012455;28;20050;-67
2022/01/30 02:51:55;;;;;;;16.13;2.90;;;6.50;99.90;;;;;;5012611;28;20060;-68
2022/01/30 02:54:21;;;;;;;14.73;1.88;;;6.50;99.90;;;;;;5010860;28;20513;-67
2022/01/30 02:56:48;;;;;;;12.80;1.70;;;6.50;99.90;;;;;;5010512;28;20489;-68
2022/01/30 02:59:14;;;;;;;13.18;2.78;;;6.50;99.90;;;;;;5009720;28;20053;-68
2022/01/30 03:01:41;;;;;;;8.90;2.20;;;6.50;99.90;;;;;;5010639;28;20034;-68
2022/01/30 03:04:08;;;;;;;42.55;2.63;;;6.40;99.90;;;;;;5011603;28;20037;-68
2022/01/30 03:06:34;;;;;;;10.70;1.75;;;6.40;99.90;;;;;;5010656;28;20133;-68
2022/01/30 03:09:01;;;;;;;4.43;1.20;;;6.40;99.90;;;;;;5009553;28;20493;-68
2022/01/30 03:11:27;;;;;;;10.20;1.15;;;6.40;99.90;;;;;;5011698;28;20092;-68
2022/01/30 03:13:52;;;;;;;10.82;2.63;;;6.30;99.90;;;;;;5011303;28;20046;-68
2022/01/30 03:16:20;;;;;;;8.60;1.30;;;6.30;99.90;;;;;;5011604;28;20030;-68
2022/01/30 03:18:46;;;;;;;12.45;1.90;;;6.40;99.90;;;;;;5011107;28;20034;-68
2022/01/30 03:21:12;;;;;;;8.13;1.95;;;6.30;99.90;;;;;;5004598;28;20092;-69
2022/01/30 03:23:38;;;;;;;10.55;1.80;;;6.30;99.90;;;;;;5012019;28;20034;-66
2022/01/30 03:26:09;;;;;;;11.27;1.42;;;6.30;99.90;;;;;;5011542;28;20112;-68
2022/01/30 03:28:35;;;;;;;13.90;2.88;;;6.30;99.90;;;;;;5003162;28;20034;-67
2022/01/30 03:31:05;;;;;;;7.22;1.60;;;6.30;99.90;;;;;;5009999;28;20030;-68
2022/01/30 03:33:31;;;;;;;7.38;1.10;;;6.20;99.90;;;;;;5011578;28;20022;-68
2022/01/30 03:35:57;;;;;;;14.52;3.08;;;6.10;99.90;;;;;;5010069;28;20493;-67
2022/01/30 03:38:24;;;;;;;9.75;1.10;;;6.10;99.90;;;;;;5010945;28;20034;-68
2022/01/30 03:40:50;;;;;;;13.32;1.30;;;6.10;99.90;;;;;;5009686;28;20034;-68
2022/01/30 03:43:16;;;;;;;13.63;1.58;;;6.10;99.90;;;;;;5009857;28;20038;-68
2022/01/30 03:45:43;;;;;;;14.23;1.45;;;6.10;99.90;;;;;;5010441;28;20150;-68
2022/01/30 03:48:09;;;;;;;14.80;2.75;;;6.20;99.90;;;;;;5009518;28;20033;-68
2022/01/30 03:50:35;;;;;;;6.40;1.33;;;6.20;99.90;;;;;;5010054;28;20083;-67
2022/01/30 03:53:00;;;;;;;18.98;2.50;;;6.10;99.90;;;;;;5011107;28;20042;-68
2022/01/30 03:55:26;;;;;;;11.73;1.90;;;6.20;99.90;;;;;;5009868;28;20141;-67
2022/01/30 03:57:52;;;;;;;6.35;1.77;;;6.10;99.90;;;;;;5011653;28;20037;-68
2022/01/30 04:00:18;;;;;;;8.60;0.82;;;6.10;99.90;;;;;;5004092;28;20033;-68
2022/01/30 04:02:44;;;;;;;14.57;1.02;;;6.10;99.90;;;;;;5010933;28;20038;-67
2022/01/30 04:05:09;;;;;;;14.07;2.03;;;6.10;99.90;;;;;;5011052;28;20044;-68
2022/01/30 04:07:35;;;;;;;10.43;1.35;;;6.10;99.90;;;;;;5011157;28;20034;-68
2022/01/30 04:10:03;;;;;;;15.80;2.13;;;6.10;99.90;;;;;;5010602;28;20042;-67
2022/01/30 04:12:29;;;;;;;17.55;2.63;;;6.10;99.90;;;;;;5008592;28;20049;-67
2022/01/30 04:14:55;;;;;;;9.35;1.52;;;6.10;99.90;;;;;;5010906;28;20303;-68
2022/01/30 04:17:21;;;;;;;11.02;1.50;;;6.10;99.90;;;;;;5009552;28;20088;-67
2022/01/30 04:19:47;;;;;;;8.43;1.73;;;6.10;99.90;;;;;;5011510;28;20044;-67
2022/01/30 04:22:13;;;;;;;12.30;1.85;;;6.10;99.90;;;;;;5010756;28;20061;-68
2022/01/30 04:24:40;;;;;;;11.70;2.05;;;6.10;99.90;;;;;;5011326;28;20086;-68
2022/01/30 04:27:05;;;;;;;10.45;1.45;;;6.10;99.90;;;;;;5010132;28;20108;-68
2022/01/30 04:29:32;;;;;;;22.77;2.83;;;5.90;99.90;;;;;;5007552;28;20482;-68
2022/01/30 04:31:58;;;;;;;5.40;1.40;;;5.90;99.90;;;;;;5004783;28;20117;-67
2022/01/30 04:34:25;;;;;;;11.68;1.40;;;5.80;99.90;;;;;;5011074;28;20022;-68
2022/01/30 04:37:48;;;;;;;16.73;2.50;;;5.80;99.90;;;;;;5011029;28;20030;-67
2022/01/30 04:53:50;;;;;;;15.80;3.30;;;5.90;99.90;;;;;;5010795;28;20513;-68
2022/01/30 05:01:13;;;;;;;14.68;1.58;;;6.00;99.90;;;;;;5010126;28;20505;-67
2022/01/30 05:06:52;;;;;;;12.80;2.42;;;6.00;99.90;;;;;;5002996;28;20121;-68
2022/01/30 05:09:17;;;;;;;7.45;1.70;;;6.00;99.90;;;;;;5014318;28;20037;-68
2022/01/30 05:11:44;;;;;;;12.00;2.40;;;6.00;99.90;;;;;;5002295;28;20521;-67
2022/01/30 05:14:10;;;;;;;11.00;2.80;;;6.00;99.90;;;;;;5014212;28;20088;-68
2022/01/30 05:16:37;;;;;;;22.20;2.63;;;6.00;99.90;;;;;;5013684;28;20080;-68
2022/01/30 05:19:03;;;;;;;11.10;1.70;;;6.00;99.90;;;;;;5014291;28;20038;-68
2022/01/30 05:21:29;;;;;;;24.83;2.58;;;6.00;99.90;;;;;;5013111;28;20413;-67
2022/01/30 05:23:55;;;;;;;11.55;2.00;;;6.10;99.90;;;;;;5013064;28;20246;-68
2022/01/30 05:26:24;;;;;;;9.10;1.75;;;6.10;99.90;;;;;;5013433;28;20038;-68
2022/01/30 05:28:50;;;;;;;20.58;1.73;;;6.20;99.90;;;;;;5013814;28;20044;-68
2022/01/30 05:31:15;;;;;;;14.23;2.40;;;6.30;99.90;;;;;;5013269;28;20049;-68
2022/01/30 05:33:41;;;;;;;19.33;3.03;;;6.30;99.90;;;;;;5012672;28;20049;-67
2022/01/30 05:36:07;;;;;;;16.00;2.53;;;6.40;99.90;;;;;;5014395;28;20038;-68
2022/01/30 05:38:33;;;;;;;13.95;2.55;;;6.40;99.90;;;;;;5012678;28;20661;-68
2022/01/30 05:40:59;;;;;;;23.00;2.45;;;6.40;99.90;;;;;;5011959;28;20064;-68
2022/01/30 05:43:28;;;;;;;19.02;2.88;;;6.40;99.90;;;;;;5013147;28;20034;-68
2022/01/30 05:46:06;;;;;;;13.27;2.63;;;6.40;99.90;;;;;;5012098;28;20507;-68
2022/01/30 05:48:32;;;;;;;16.83;4.32;;;6.40;99.90;;;;;;5012719;28;20042;-68
2022/01/30 05:50:57;;;;;;;17.95;2.28;;;6.40;99.90;;;;;;5012963;28;20041;-68
2022/01/30 05:53:23;;;;;;;30.52;4.45;;;6.30;99.90;;;;;;5013077;28;20100;-68
2022/01/30 05:55:50;;;;;;;16.92;2.83;;;6.20;99.90;;;;;;5013353;28;20041;-68
2022/01/30 05:58:16;;;;;;;13.02;2.20;;;6.20;99.90;;;;;;5011918;28;20034;-68
2022/01/30 06:00:41;;;;;;;16.67;2.97;;;6.20;99.90;;;;;;5012218;28;20042;-67
2022/01/30 06:03:07;;;;;;;23.02;5.13;;;6.10;99.90;;;;;;5012319;28;20464;-66
2022/01/30 06:05:32;;;;;;;29.75;2.72;;;6.00;99.90;;;;;;5011440;28;20041;-68
2022/01/30 06:08:08;;;;;;;18.90;2.97;;;6.00;99.90;;;;;;5012489;28;20489;-67
2022/01/30 06:10:34;;;;;;;21.85;2.50;;;5.90;99.90;;;;;;5011004;28;20038;-67
2022/01/30 06:12:59;;;;;;;21.80;3.35;;;5.90;99.90;;;;;;5013210;28;20044;-67
2022/01/30 06:15:25;;;;;;;16.23;2.08;;;5.80;99.90;;;;;;5012597;28;20091;-68
2022/01/30 06:17:50;;;;;;;15.10;3.25;;;5.90;99.90;;;;;;5010304;28;20116;-68
2022/01/30 06:20:16;;;;;;;11.75;2.00;;;5.90;99.90;;;;;;5010426;28;20113;-67
2022/01/30 06:22:42;;;;;;;22.63;3.17;;;5.90;99.90;;;;;;5012892;28;20541;-68
2022/01/30 06:25:09;;;;;;;9.45;2.40;;;5.80;99.90;;;;;;5012327;28;20034;-67
2022/01/30 06:27:35;;;;;;;15.27;2.20;;;5.80;99.90;;;;;;5011888;28;20449;-66
2022/01/30 06:30:04;;;;;;;14.73;2.78;;;5.80;99.90;;;;;;5011985;28;20034;-68
2022/01/30 06:32:30;;;;;;;17.27;3.60;;;5.70;99.90;;;;;;5010213;28;20386;-68
2022/01/30 06:34:56;;;;;;;17.75;2.75;;;5.60;99.90;;;;;;5012295;28;20113;-67
2022/01/30 06:37:22;;;;;;;16.58;2.53;;;5.70;99.90;;;;;;5011172;28;20486;-67
2022/01/30 06:39:47;;;;;;;15.60;2.58;;;5.60;99.90;;;;;;5011586;28;20036;-67
2022/01/30 06:42:13;;;;;;;17.30;2.65;;;5.60;99.90;;;;;;5011606;28;20501;-68
2022/01/30 06:44:38;;;;;;;19.40;2.33;;;5.50;99.90;;;;;;5002757;28;20030;-68
2022/01/30 06:47:05;;;;;;;14.27;2.20;;;5.50;99.90;;;;;;5012298;28;20033;-68
2022/01/30 06:49:31;;;;;;;24.17;2.33;;;5.30;99.90;;;;;;5011916;28;20088;-67
2022/01/30 06:51:56;;;;;;;9.27;1.92;;;5.30;99.90;;;;;;5012056;28;20456;-68
2022/01/30 06:54:22;;;;;;;15.75;1.98;;;5.30;99.90;;;;;;5011117;28;20501;-68
2022/01/30 06:56:47;;;;;;;10.60;1.73;;;5.30;99.90;;;;;;5012021;28;20045;-67
2022/01/30 06:59:13;;;;;;;11.13;1.95;;;5.30;99.90;;;;;;5011788;28;20405;-67
2022/01/30 07:01:39;;;;;;;25.70;3.30;;;5.30;99.90;;;;;;5011354;28;20145;-68
2022/01/30 07:04:04;;;;;;;17.33;2.47;;;5.30;99.90;;;;;;5011791;28;20168;-68
2022/01/30 07:06:30;;;;;;;17.50;3.33;;;5.30;99.90;;;;;;5009623;28;20038;-68
2022/01/30 07:08:56;;;;;;;26.05;5.25;;;5.20;99.90;;;;;;5011080;28;20034;-67
2022/01/30 07:11:21;;;;;;;22.48;3.28;;;5.20;99.90;;;;;;5010977;28;20045;-68
2022/01/30 07:13:47;;;;;;;10.63;1.48;;;5.10;99.90;;;;;;5010336;28;20547;-67
2022/01/30 07:16:15;;;;;;;23.65;2.10;;;5.10;99.90;;;;;;5009988;28;20203;-68
2022/01/30 07:18:41;;;;;;;22.05;2.10;;;5.00;99.90;;;;;;5010927;28;20081;-67
2022/01/30 07:21:09;;;;;;;32.47;3.67;;;5.00;99.90;;;;;;5002692;28;20049;-67
2022/01/30 07:23:38;;;;;;;29.38;3.40;;;5.00;99.90;;;;;;5010651;28;20405;-69
2022/01/30 07:26:04;;;;;;;24.23;2.70;;;5.00;99.90;;;;;;5011742;28;20040;-67
2022/01/30 07:28:29;;;;;;;31.77;2.70;;;5.10;99.90;;;;;;4990789;28;20043;-68
2022/01/30 07:30:55;;;;;;;22.05;2.45;;;5.10;99.90;;;;;;4994377;28;20107;-67
2022/01/30 07:33:21;;;;;;;24.35;2.92;;;5.10;99.90;;;;;;4990430;28;20038;-68
2022/01/30 07:35:47;;;;;;;17.05;2.97;;;5.10;99.90;;;;;;4996326;28;20037;-67
2022/01/30 07:38:13;;;;;;;29.95;3.63;;;5.10;99.90;;;;;;4991957;28;20041;-67
2022/01/30 07:40:39;;;;;;;18.63;3.47;;;5.10;99.90;;;;;;4990471;28;20084;-67
2022/01/30 07:43:04;;;;;;;19.83;3.28;;;5.10;99.90;;;;;;4994711;28;20033;-67
2022/01/30 07:45:30;;;;;;;19.88;2.50;;;5.20;99.90;;;;;;4995071;28;20049;-67
2022/01/30 07:47:55;;;;;;;22.25;3.55;;;5.20;99.90;;;;;;4999140;28;20037;-68
2022/01/30 07:50:21;;;;;;;29.92;4.20;;;5.20;99.90;;;;;;5006588;28;20541;-67
2022/01/30 07:52:48;;;;;;;19.40;3.30;;;5.20;99.90;;;;;;4994534;28;20504;-67
2022/01/30 07:55:13;;;;;;;22.00;3.03;;;5.20;99.90;;;;;;5010746;28;20037;-67
2022/01/30 07:57:41;;;;;;;17.30;3.67;;;5.10;99.90;;;;;;5010695;28;20034;-67
2022/01/30 08:00:07;;;;;;;15.90;3.60;;;5.20;99.90;;;;;;5011233;28;20052;-67
2022/01/30 08:02:34;;;;;;;27.02;3.22;;;5.10;99.90;;;;;;5009311;28;20041;-67
2022/01/30 08:04:59;;;;;;;23.63;2.97;;;5.10;99.90;;;;;;5009902;28;20030;-67
2022/01/30 08:07:26;;;;;;;21.80;3.10;;;5.10;99.90;;;;;;5009171;28;20417;-68
2022/01/30 08:09:51;;;;;;;19.30;2.83;;;5.10;99.90;;;;;;4997413;28;20053;-69
2022/01/30 08:12:19;;;;;;;24.02;4.43;;;5.20;99.90;;;;;;5009532;28;20081;-69
2022/01/30 08:14:45;;;;;;;14.60;3.08;;;5.20;99.90;;;;;;5009868;28;20127;-67
2022/01/30 08:17:11;;;;;;;19.02;2.75;;;5.20;99.90;;;;;;5009423;28;20061;-67
2022/01/30 08:19:37;;;;;;;24.42;3.13;;;5.40;99.90;;;;;;5008489;28;20392;-67
2022/01/30 08:22:03;;;;;;;17.50;2.65;;;5.50;99.90;;;;;;5009085;28;20086;-67
2022/01/30 08:24:28;;;;;;;12.85;2.03;;;5.60;99.90;;;;;;5008733;28;20037;-68
2022/01/30 08:26:54;;;;;;;16.58;3.78;;;5.70;99.90;;;;;;5006808;28;20034;-67
2022/01/30 08:29:19;;;;;;;22.75;3.72;;;5.80;99.90;;;;;;5006507;28;20026;-68
2022/01/30 08:31:45;;;;;;;22.83;3.28;;;5.90;99.90;;;;;;5008995;28;20041;-67
2022/01/30 08:34:11;;;;;;;16.20;2.33;;;5.90;99.90;;;;;;5008851;28;20073;-67
2022/01/30 08:36:36;;;;;;;24.88;3.17;;;5.90;99.90;;;;;;5009476;28;20030;-71
2022/01/30 08:39:02;;;;;;;23.63;3.97;;;5.90;99.90;;;;;;5009140;28;20680;-68
2022/01/30 08:41:28;;;;;;;23.33;1.92;;;5.90;99.90;;;;;;5007469;28;20038;-67
2022/01/30 08:43:53;;;;;;;27.92;3.20;;;5.80;99.90;;;;;;5009089;28;20041;-67
2022/01/30 08:46:20;;;;;;;20.75;2.55;;;5.90;99.90;;;;;;5007832;28;20076;-67
2022/01/30 08:48:46;;;;;;;23.55;3.55;;;5.80;99.90;;;;;;5007975;28;20030;-68
2022/01/30 08:51:11;;;;;;;24.88;5.40;;;5.90;99.90;;;;;;5008809;28;20034;-68
2022/01/30 08:53:37;;;;;;;23.35;2.90;;;6.00;99.90;;;;;;5008834;28;20075;-67
2022/01/30 08:56:02;;;;;;;14.45;3.15;;;6.00;99.90;;;;;;5009308;28;20128;-67
2022/01/30 08:58:29;;;;;;;23.20;4.10;;;6.10;99.90;;;;;;5009774;28;20030;-69
2022/01/30 09:00:55;;;;;;;17.77;2.20;;;6.10;99.90;;;;;;5009531;28;20132;-67
2022/01/30 09:03:21;;;;;;;23.83;4.22;;;6.10;99.90;;;;;;5009029;28;20545;-67
2022/01/30 09:05:46;;;;;;;20.42;3.70;;;6.20;99.90;;;;;;5005683;28;20041;-70
2022/01/30 09:08:13;;;;;;;20.15;3.50;;;6.20;99.90;;;;;;5008216;28;20469;-69
2022/01/30 09:10:39;;;;;;;23.27;3.65;;;6.30;99.90;;;;;;5000883;28;20042;-66
2022/01/30 09:13:06;;;;;;;23.15;2.55;;;6.30;99.90;;;;;;5008201;28;20073;-70
2022/01/30 09:15:41;;;;;;;13.38;2.40;;;6.40;99.90;;;;;;5008951;28;20030;-70
2022/01/30 09:18:09;;;;;;;20.20;4.03;;;6.40;99.90;;;;;;5009345;28;20037;-67
2022/01/30 09:20:40;;;;;;;20.80;2.55;;;6.50;99.90;;;;;;5009359;28;20100;-69
2022/01/30 09:23:06;;;;;;;23.90;3.50;;;6.60;99.90;;;;;;5007226;28;20033;-71
2022/01/30 09:25:32;;;;;;;25.50;3.13;;;6.70;99.90;;;;;;5006609;28;20095;-66
2022/01/30 09:27:58;;;;;;;17.63;2.50;;;6.80;99.90;;;;;;5010339;28;20030;-68
2022/01/30 09:30:23;;;;;;;14.75;3.55;;;6.80;99.90;;;;;;5009698;28;20121;-66
2022/01/30 09:32:49;;;;;;;28.05;2.88;;;6.90;99.90;;;;;;5010750;28;20517;-66
2022/01/30 09:35:15;;;;;;;21.17;2.78;;;7.00;99.90;;;;;;5008681;28;20034;-68
2022/01/30 09:37:40;;;;;;;13.93;2.30;;;7.00;99.90;;;;;;5009895;28;20040;-68
2022/01/30 09:40:07;;;;;;;23.40;4.88;;;7.10;99.90;;;;;;5009647;28;20038;-68
2022/01/30 09:42:34;;;;;;;26.60;2.90;;;7.30;99.90;;;;;;5008049;28;20103;-69
2022/01/30 09:45:04;;;;;;;17.10;3.35;;;7.50;99.90;;;;;;5008499;28;20130;-69
2022/01/30 09:47:30;;;;;;;23.55;3.47;;;7.50;99.90;;;;;;5008529;28;20041;-69
2022/01/30 09:49:58;;;;;;;15.48;2.90;;;7.60;99.90;;;;;;5006831;28;20117;-68
2022/01/30 09:52:24;;;;;;;19.60;3.47;;;7.70;99.90;;;;;;5010210;28;20037;-71
2022/01/30 09:54:50;;;;;;;23.70;3.35;;;7.80;99.90;;;;;;5012071;28;20030;-68
2022/01/30 09:57:16;;;;;;;27.17;3.78;;;8.00;99.90;;;;;;5013402;28;20037;-68
2022/01/30 09:59:42;;;;;;;17.63;3.05;;;8.20;99.90;;;;;;4995119;28;20069;-68
2022/01/30 10:02:08;;;;;;;23.90;2.83;;;8.10;99.90;;;;;;5013246;28;20123;-68
2022/01/30 10:04:35;;;;;;;20.77;3.55;;;8.10;99.90;;;;;;5013709;28;20036;-70
2022/01/30 10:07:08;;;;;;;18.50;3.30;;;8.20;99.90;;;;;;5012672;28;20041;-68
2022/01/30 10:09:36;;;;;;;22.83;3.70;;;8.10;99.90;;;;;;5013642;28;20030;-68
2022/01/30 10:12:28;;;;;;;23.67;4.35;;;8.10;99.90;;;;;;5013021;28;20402;-68
2022/01/30 10:14:59;;;;;;;21.45;3.67;;;8.10;99.90;;;;;;5004073;28;20062;-68
2022/01/30 10:17:34;;;;;;;19.67;2.42;;;8.00;99.90;;;;;;5010597;28;20034;-69
2022/01/30 10:20:09;;;;;;;18.55;2.28;;;7.80;99.90;;;;;;5013299;28;20050;-68
2022/01/30 10:22:49;;;;;;;15.23;2.40;;;7.70;99.90;;;;;;5013363;28;20029;-68
2022/01/30 10:25:20;;;;;;;9.32;1.73;;;7.70;99.90;;;;;;4999649;28;20038;-68
2022/01/30 10:27:46;;;;;;;23.27;3.13;;;7.70;99.90;;;;;;5013219;28;20140;-68
2022/01/30 10:30:12;;;;;;;24.98;2.72;;;7.70;99.90;;;;;;5012272;28;20117;-68
2022/01/30 10:32:38;;;;;;;11.25;1.92;;;7.80;99.90;;;;;;5013144;28;20436;-68
2022/01/30 10:35:06;;;;;;;26.30;2.47;;;7.90;99.90;;;;;;5013415;28;20030;-68
2022/01/30 10:37:34;;;;;;;22.25;2.65;;;8.10;99.90;;;;;;5008103;28;20350;-68
2022/01/30 10:40:07;;;;;;;32.35;4.60;;;8.20;99.90;;;;;;5012863;28;20030;-68
2022/01/30 10:42:39;;;;;;;20.50;3.53;;;8.40;99.90;;;;;;5011109;28;20105;-68
2022/01/30 10:45:08;;;;;;;26.33;4.32;;;8.50;99.90;;;;;;5005211;28;20515;-67
2022/01/30 10:47:36;;;;;;;22.02;2.53;;;8.40;99.90;;;;;;5011204;28;20049;-69
2022/01/30 10:50:07;;;;;;;18.38;2.47;;;8.40;99.90;;;;;;5012677;28;20402;-67
2022/01/30 10:52:32;;;;;;;19.60;3.78;;;8.20;99.90;;;;;;5012603;28;20057;-68
2022/01/30 10:55:05;;;;;;;17.00;3.13;;;8.00;99.90;;;;;;5012491;28;20131;-68
2022/01/30 10:57:39;;;;;;;14.18;2.83;;;7.90;99.90;;;;;;5012001;28;20195;-68
2022/01/30 11:00:06;;;;;;;24.52;3.83;;;7.90;99.90;;;;;;5012098;28;20034;-69
2022/01/30 11:02:36;;;;;;;22.35;3.75;;;7.90;99.90;;;;;;5011077;28;20065;-68
2022/01/30 11:05:06;;;;;;;;;;;8.00;99.90;;;;;;5011224;28;20034;-69
2022/01/30 11:07:35;;;;;;;16.92;2.80;;;8.10;99.90;;;;;;5011720;28;20012;-68
2022/01/30 11:10:10;;;;;;;22.92;2.97;;;8.20;99.90;;;;;;5011918;28;20372;-69
2022/01/30 11:12:45;;;;;;;12.93;2.35;;;8.40;99.90;;;;;;5011604;28;20045;-69
2022/01/30 11:15:34;;;;;;;20.17;2.78;;;8.80;99.90;;;;;;5012445;28;20036;-70
2022/01/30 11:18:03;;;;;;;23.20;3.25;;;8.80;99.90;;;;;;5011714;28;20034;-68
2022/01/30 11:20:31;;;;;;;22.50;2.67;;;8.60;99.90;;;;;;5011302;28;20029;-68
2022/01/30 11:23:00;;;;;;;21.75;3.08;;;8.50;99.90;;;;;;5012581;28;20508;-68
2022/01/30 11:25:33;;;;;;;19.73;3.00;;;8.30;99.90;;;;;;5011749;28;20034;-68
2022/01/30 11:28:04;;;;;;;24.00;2.88;;;8.10;99.90;;;;;;5007649;28;20041;-68
2022/01/30 11:30:34;;;;;;;19.20;2.83;;;8.10;99.90;;;;;;5011154;28;20084;-68
2022/01/30 11:33:00;;;;;;;25.02;3.03;;;8.10;99.90;;;;;;5011701;28;20037;-68
2022/01/30 11:35:27;;;;;;;29.98;3.22;;;8.20;99.90;;;;;;5009861;28;20070;-68
2022/01/30 11:37:53;;;;;;;22.30;4.88;;;8.30;99.90;;;;;;5011540;28;20038;-68
2022/01/30 11:40:20;;;;;;;21.98;3.35;;;8.40;99.90;;;;;;4995820;28;20832;-70
2022/01/30 11:42:49;;;;;;;20.63;3.60;;;8.60;99.90;;;;;;5008489;28;20026;-68
2022/01/30 11:45:27;;;;;;;16.63;2.83;;;8.80;99.90;;;;;;5008678;28;20075;-70
2022/01/30 11:48:03;;;;;;;20.85;2.33;;;8.80;99.90;;;;;;5010255;28;20034;-69
2022/01/30 11:50:32;;;;;;;24.02;3.88;;;8.70;99.90;;;;;;5009865;28;20030;-71
2022/01/30 11:53:02;;;;;;;20.25;4.30;;;8.40;99.90;;;;;;5010124;28;20465;-68
2022/01/30 11:55:37;;;;;;;25.80;3.70;;;8.30;99.90;;;;;;5010442;28;20044;-67
2022/01/30 11:58:03;;;;;;;22.90;3.80;;;8.40;99.90;;;;;;4999727;28;20030;-68
2022/01/30 12:00:38;;;;;;;18.70;3.28;;;8.50;99.90;;;;;;5005898;28;20663;-69
2022/01/30 12:03:26;;;;;;;25.63;2.83;;;8.70;99.90;;;;;;5003587;28;20034;-69
2022/01/30 12:05:53;;;;;;;20.00;3.28;;;9.10;99.90;;;;;;5010017;28;20417;-68
2022/01/30 12:08:50;;;;;;;18.27;2.50;;;9.30;99.90;;;;;;5010011;28;20045;-69
2022/01/30 12:11:37;;;;;;;15.65;2.72;;;9.40;99.90;;;;;;5008319;28;20042;-68
2022/01/30 12:14:06;;;;;;;18.73;2.65;;;9.50;99.90;;;;;;5001877;28;20398;-70
2022/01/30 12:16:43;;;;;;;24.80;3.50;;;9.40;99.90;;;;;;5008785;28;20076;-70
2022/01/30 12:19:09;;;;;;;29.48;3.28;;;9.20;99.90;;;;;;5006129;28;20498;-70
2022/01/30 12:21:34;;;;;;;21.67;2.88;;;9.10;99.90;;;;;;5009517;28;20069;-68
2022/01/30 12:24:21;;;;;;;25.30;3.70;;;9.00;99.90;;;;;;5009994;28;20592;-68
2022/01/30 12:27:00;;;;;;;22.60;2.28;;;8.80;99.90;;;;;;5009084;28;20038;-69
2022/01/30 12:29:46;;;;;;;21.75;2.70;;;8.60;99.90;;;;;;5008156;28;20030;-70
2022/01/30 12:32:21;;;;;;;41.17;5.50;;;8.40;99.90;;;;;;5006034;28;20486;-71
2022/01/30 12:35:07;;;;;;;16.38;2.92;;;8.20;99.90;;;;;;5007591;28;20056;-69
2022/01/30 12:37:37;;;;;;;21.60;4.07;;;8.10;99.90;;;;;;4999577;28;20041;-68
2022/01/30 12:40:17;;;;;;;13.95;3.58;;;8.10;99.90;;;;;;5011722;28;20041;-68
2022/01/30 12:42:43;;;;;;;27.17;3.95;;;8.20;99.90;;;;;;5008825;28;20084;-68
2022/01/30 12:45:10;;;;;;;18.40;4.25;;;8.20;99.90;;;;;;5011119;28;20485;-70
2022/01/30 12:47:46;;;;;;;16.10;2.50;;;8.20;99.90;;;;;;5010076;28;20042;-68
2022/01/30 12:50:12;;;;;;;32.90;3.08;;;8.30;99.90;;;;;;5010768;28;20033;-68
2022/01/30 12:52:39;;;;;;;21.05;2.65;;;8.40;99.90;;;;;;5010526;28;20362;-68
2022/01/30 12:55:10;;;;;;;16.98;3.10;;;8.40;99.90;;;;;;5008952;28;20033;-68
2022/01/30 12:57:37;;;;;;;19.50;3.03;;;8.50;99.90;;;;;;4997642;28;20486;-68
2022/01/30 13:00:07;;;;;;;13.98;2.70;;;8.70;99.90;;;;;;5010219;28;20060;-69
2022/01/30 13:02:37;;;;;;;21.13;3.70;;;8.90;99.90;;;;;;5009785;28;20033;-68
2022/01/30 13:05:05;;;;;;;18.52;2.40;;;9.00;99.90;;;;;;5010407;28;20022;-68
2022/01/30 13:07:31;;;;;;;20.92;3.22;;;9.10;99.90;;;;;;5008139;28;20026;-68
2022/01/30 13:10:03;;;;;;;19.10;3.22;;;9.00;99.90;;;;;;5010331;28;20092;-69
2022/01/30 13:12:31;;;;;;;25.80;4.03;;;9.00;99.90;;;;;;5003227;28;20029;-68
2022/01/30 13:14:57;;;;;;;29.35;4.60;;;8.90;99.90;;;;;;5010681;28;20048;-69
2022/01/30 13:17:30;;;;;;;19.17;3.95;;;8.80;99.90;;;;;;5015610;23;20134;-63
2022/01/30 13:19:56;;;;;;;13.70;2.20;;;8.70;99.90;;;;;;5023472;28;20044;-62
2022/01/30 13:22:34;;;;;;;13.50;2.50;;;8.70;99.90;;;;;;5027173;28;20433;-62
2022/01/30 13:25:02;;;;;;;20.75;3.17;;;8.70;99.90;;;;;;5026800;28;20072;-61
2022/01/30 13:27:28;;;;;;;25.77;3.25;;;8.70;99.90;;;;;;5034804;28;20051;-62
2022/01/30 13:29:54;;;;;;;20.58;3.83;;;8.80;99.90;;;;;;5051410;28;20441;-62
2022/01/30 13:32:26;;;;;;;14.25;3.13;;;9.00;99.90;;;;;;5051738;28;20480;-62
2022/01/30 13:34:53;;;;;;;19.35;3.88;;;9.10;99.90;;;;;;5050876;28;20029;-62
2022/01/30 13:37:20;;;;;;;20.75;3.63;;;9.10;99.90;;;;;;5051418;28;20037;-62
2022/01/30 13:47:43;;;;;;;14.57;2.30;;;8.80;99.90;;;;;;5050770;28;20094;-63
2022/01/30 13:50:16;;;;;;;17.20;2.80;;;8.60;99.90;;;;;;5052614;28;21332;-61
2022/01/30 13:52:41;;;;;;;19.27;3.42;;;8.40;99.90;;;;;;5051101;28;20175;-62
2022/01/30 13:55:07;;;;;;;18.23;2.67;;;8.20;99.90;;;;;;5052460;28;20435;-61